Time;durP1;ratioP1;P1;durP2;ratioP2;P2;SDS_P1;SDS_P2;PMS_P1;PMS_P2;Temp;Humidity;BMP_temperature;BMP_pressure;BME280_temperature;BME280_humidity;BME280_pressure;Samples;Min_cycle;Max_cycle;Signal;HPM_P1;HPM_P2
2022/07/25 00:00:49;;;;;;;4.28;3.42;;;;;;;16.45;76.84;100977.88;1643632;85;25809;-77
2022/07/25 00:03:15;;;;;;;6.08;4.05;;;;;;;16.46;76.79;100976.02;1641510;87;26000;-77
2022/07/25 00:05:41;;;;;;;4.12;3.72;;;;;;;16.46;77.01;100968.73;1641635;87;27446;-77
2022/07/25 00:08:08;;;;;;;5.55;3.65;;;;;;;16.46;76.80;100966.03;1646311;86;25758;-77
2022/07/25 00:10:34;;;;;;;4.15;3.75;;;;;;;16.44;76.76;100956.47;1646361;85;25735;-77
2022/07/25 00:13:00;;;;;;;4.97;3.60;;;;;;;16.44;76.97;100957.83;1641572;85;26230;-77
2022/07/25 00:15:28;;;;;;;3.33;3.02;;;;;;;16.45;77.25;100954.06;1638854;85;25850;-76
2022/07/25 00:17:54;;;;;;;4.25;3.47;;;;;;;16.43;76.88;100952.94;1623866;86;27455;-77
2022/07/25 00:20:21;;;;;;;3.75;3.45;;;;;;;16.41;76.83;100947.43;1641393;87;25924;-78
2022/07/25 00:22:47;;;;;;;3.90;3.60;;;;;;;16.41;77.05;100952.84;1641384;87;26068;-77
2022/07/25 00:25:14;;;;;;;5.30;4.12;;;;;;;16.41;77.27;100950.13;1642483;87;25747;-76
2022/07/25 00:27:40;;;;;;;8.65;4.40;;;;;;;16.40;77.39;100947.14;1640551;85;25412;-77
2022/07/25 00:30:08;;;;;;;8.18;4.20;;;;;;;16.40;77.69;100951.20;1636169;85;27471;-77
2022/07/25 00:32:34;;;;;;;5.83;4.65;;;;;;;16.37;77.21;100947.56;1646113;86;25791;-77
2022/07/25 00:35:00;;;;;;;5.72;3.98;;;;;;;16.35;77.42;100953.70;1646417;86;25822;-77
2022/07/25 00:37:27;;;;;;;4.05;3.65;;;;;;;16.33;77.54;100955.28;1640804;87;26029;-77
2022/07/25 00:39:53;;;;;;;7.00;4.08;;;;;;;16.29;77.35;100958.11;1639981;87;26413;-78
2022/07/25 00:42:20;;;;;;;4.15;3.75;;;;;;;16.23;77.11;100953.03;1639682;87;27424;-76
2022/07/25 00:44:47;;;;;;;4.28;3.87;;;;;;;16.15;76.90;100955.98;1644273;85;25913;-77
2022/07/25 00:47:13;;;;;;;4.33;3.77;;;;;;;16.10;76.90;100956.33;1647770;86;25840;-77
2022/07/25 00:49:39;;;;;;;4.28;3.50;;;;;;;16.02;76.99;100951.14;1646575;86;25840;-76
2022/07/25 00:52:06;;;;;;;4.45;3.25;;;;;;;15.96;77.09;100956.88;1642101;87;25920;-75
2022/07/25 00:54:32;;;;;;;3.10;2.85;;;;;;;15.90;77.02;100957.73;1642750;87;27591;-77
2022/07/25 00:56:59;;;;;;;3.25;2.95;;;;;;;15.83;77.05;100947.47;1643996;85;25856;-76
2022/07/25 00:59:25;;;;;;;3.52;3.20;;;;;;;15.78;77.01;100951.31;1643720;85;25863;-77
2022/07/25 01:01:52;;;;;;;4.08;2.67;;;;;;;15.71;76.83;100950.52;1639016;87;26590;-76
2022/07/25 01:04:19;;;;;;;4.83;3.30;;;;;;;15.66;76.70;100945.42;1646843;86;25878;-76
2022/07/25 01:06:45;;;;;;;3.40;3.10;;;;;;;15.60;76.66;100950.33;1642349;87;27423;-77
2022/07/25 01:09:12;;;;;;;3.08;2.70;;;;;;;15.58;76.54;100944.31;1646861;86;26000;-76
2022/07/25 01:11:38;;;;;;;3.45;3.15;;;;;;;15.52;76.50;100946.00;1642493;85;25802;-77
2022/07/25 01:14:05;;;;;;;3.95;3.35;;;;;;;15.49;76.68;100942.35;1641879;87;25831;-75
2022/07/25 01:16:32;;;;;;;4.85;4.10;;;;;;;15.52;77.12;100945.16;1648354;85;25864;-77
2022/07/25 01:18:58;;;;;;;6.25;4.03;;;;;;;15.53;77.46;100936.00;1642659;85;28228;-77
2022/07/25 01:21:25;;;;;;;5.50;4.28;;;;;;;15.57;77.96;100938.07;1641007;86;25915;-76
2022/07/25 01:23:52;;;;;;;4.72;4.22;;;;;;;15.59;78.21;100935.19;1639525;87;25334;-76
2022/07/25 01:26:18;;;;;;;5.62;4.67;;;;;;;15.59;78.59;100935.19;1649003;85;25790;-76
2022/07/25 01:28:44;;;;;;;6.47;4.55;;;;;;;15.59;78.21;100945.98;1646851;85;25846;-76
2022/07/25 01:31:10;;;;;;;10.80;4.05;;;;;;;15.55;77.98;100948.25;1641979;87;28313;-76
2022/07/25 01:33:37;;;;;;;5.62;4.22;;;;;;;15.49;77.76;100945.56;1637145;87;26440;-77
2022/07/25 01:36:04;;;;;;;6.42;3.90;;;;;;;15.45;77.84;100942.47;1647006;86;25777;-76
2022/07/25 01:38:31;;;;;;;4.10;3.70;;;;;;;15.40;77.51;100941.71;1646527;86;26308;-76
2022/07/25 01:40:57;;;;;;;4.50;3.77;;;;;;;15.35;77.84;100936.09;1637868;85;26167;-76
2022/07/25 01:43:23;;;;;;;5.53;3.98;;;;;;;15.33;77.88;100944.92;1638636;86;27451;-77
2022/07/25 01:45:49;;;;;;;6.58;3.80;;;;;;;15.28;77.67;100948.80;1646649;86;25905;-76
2022/07/25 01:48:16;;;;;;;5.65;3.83;;;;;;;15.23;77.73;100937.78;1646910;86;25769;-77
2022/07/25 01:50:42;;;;;;;4.15;3.52;;;;;;;15.20;77.68;100936.87;1637586;87;26000;-75
2022/07/25 01:53:08;;;;;;;5.58;4.45;;;;;;;15.17;77.36;100934.58;1640612;87;25973;-77
2022/07/25 01:55:34;;;;;;;5.28;3.17;;;;;;;15.11;77.32;100926.48;1643381;85;27445;-76
2022/07/25 01:58:01;;;;;;;4.10;3.35;;;;;;;15.07;77.20;100935.52;1638074;85;25885;-77
2022/07/25 02:00:27;;;;;;;4.87;3.17;;;;;;;15.01;77.09;100929.58;1646316;86;25846;-77
2022/07/25 02:03:28;;;;;;;4.60;3.20;;;;;;;14.96;77.24;100928.04;1646721;86;26116;-77
2022/07/25 02:05:22;;;;;;;8.20;5.08;;;;;;;14.93;77.41;100930.30;1637701;85;26079;-76
2022/07/25 02:07:48;;;;;;;6.28;5.00;;;;;;;14.93;77.72;100923.55;1642737;87;28308;-77
2022/07/25 02:10:14;;;;;;;7.42;5.60;;;;;;;14.94;77.79;100926.58;1647302;85;25792;-77
2022/07/25 02:12:41;;;;;;;8.98;6.15;;;;;;;14.95;77.98;100914.23;1636109;86;25906;-77
2022/07/25 02:15:08;;;;;;;8.10;4.97;;;;;;;14.97;77.94;100917.55;1646609;86;26074;-76
2022/07/25 02:17:34;;;;;;;7.65;4.50;;;;;;;14.98;77.79;100922.43;1640776;87;25961;-77
2022/07/25 02:20:00;;;;;;;9.23;5.30;;;;;;;14.97;77.87;100926.98;1647888;86;28293;-77
2022/07/25 02:22:27;;;;;;;5.42;4.40;;;;;;;14.93;77.83;100923.55;1642283;87;26089;-77
2022/07/25 02:24:53;;;;;;;8.35;3.77;;;;;;;14.88;77.74;100932.30;1641244;85;25837;-76
2022/07/25 02:27:19;;;;;;;4.60;3.40;;;;;;;14.85;77.79;100925.12;1640622;85;26647;-76
2022/07/25 02:29:46;;;;;;;4.20;3.80;;;;;;;14.81;77.86;100926.06;1642861;87;26637;-76
2022/07/25 02:32:12;;;;;;;4.30;3.90;;;;;;;14.79;77.85;100929.99;1641866;87;28264;-76
2022/07/25 02:34:38;;;;;;;7.05;3.70;;;;;;;14.76;77.96;100924.48;1642403;85;26505;-78
2022/07/25 02:37:04;;;;;;;7.20;3.67;;;;;;;14.73;77.97;100932.17;1640461;87;25794;-77
2022/07/25 02:39:31;;;;;;;7.42;3.70;;;;;;;14.69;77.99;100938.50;1647189;85;26452;-77
2022/07/25 02:41:59;;;;;;;4.12;3.72;;;;;;;14.66;78.08;100934.85;1646050;85;25758;-76
2022/07/25 02:44:25;;;;;;;3.58;3.22;;;;;;;14.60;78.03;100937.86;1641842;87;27466;-76
2022/07/25 02:46:51;;;;;;;3.85;3.45;;;;;;;14.62;79.31;100937.14;1642702;87;25373;-77
2022/07/25 02:49:18;;;;;;;7.33;3.98;;;;;;;14.77;80.02;100937.46;1642642;87;26682;-77
2022/07/25 02:51:44;;;;;;;5.00;3.47;;;;;;;14.98;80.41;100929.17;1648361;86;26440;-75
2022/07/25 02:54:11;;;;;;;5.05;4.00;;;;;;;15.19;80.73;100933.01;1642906;85;26282;-76
2022/07/25 02:56:37;;;;;;;4.75;3.60;;;;;;;15.37;79.97;100931.86;1641283;85;28036;-77
2022/07/25 02:59:03;;;;;;;3.47;3.02;;;;;;;15.52;79.44;100928.95;1642009;87;25903;-77
2022/07/25 03:01:29;;;;;;;4.33;3.50;;;;;;;15.65;78.87;100928.42;1634385;85;25775;-77
2022/07/25 03:03:56;;;;;;;6.15;3.95;;;;;;;15.74;77.56;100929.83;1646721;85;25556;-77
2022/07/25 03:06:22;;;;;;;3.95;3.65;;;;;;;15.73;77.47;100926.83;1645707;86;25941;-78
2022/07/25 03:08:48;;;;;;;4.65;3.50;;;;;;;15.79;77.38;100928.67;1639632;85;28369;-77
2022/07/25 03:11:15;;;;;;;3.87;3.37;;;;;;;15.85;76.85;100931.03;1652316;85;25814;-77
2022/07/25 03:13:42;;;;;;;3.67;3.30;;;;;;;15.85;76.36;100934.58;1646691;86;25996;-76
2022/07/25 03:16:08;;;;;;;5.25;3.10;;;;;;;15.88;76.54;100926.57;1645954;85;26674;-77
2022/07/25 03:18:35;;;;;;;7.35;3.40;;;;;;;15.96;76.60;100928.52;1647330;86;25964;-77
2022/07/25 03:21:01;;;;;;;4.75;2.95;;;;;;;16.02;76.11;100926.30;1643415;87;28467;-77
2022/07/25 03:23:29;;;;;;;4.62;2.77;;;;;;;16.07;75.49;100927.02;1642008;86;25885;-76
2022/07/25 03:25:56;;;;;;;4.55;2.72;;;;;;;16.07;75.44;100921.61;1639423;86;25782;-76
2022/07/25 03:28:23;;;;;;;4.95;3.25;;;;;;;16.12;75.69;100921.80;1644179;86;26262;-77
2022/07/25 03:30:51;;;;;;;5.97;3.60;;;;;;;16.18;75.60;100919.08;1642694;87;25605;-77
2022/07/25 03:33:17;;;;;;;3.90;3.47;;;;;;;16.25;75.61;100917.69;1649901;85;27549;-76
2022/07/25 03:35:44;;;;;;;3.58;3.12;;;;;;;16.34;75.42;100919.63;1646534;85;25787;-77
2022/07/25 03:38:10;;;;;;;5.55;3.15;;;;;;;16.39;75.11;100920.62;1643822;85;25970;-76
2022/07/25 03:40:37;;;;;;;5.05;3.72;;;;;;;16.42;74.64;100916.14;1651609;86;26283;-76
2022/07/25 03:43:03;;;;;;;4.33;3.25;;;;;;;16.40;74.58;100918.75;1642880;87;25739;-77
2022/07/25 03:45:29;;;;;;;3.15;2.65;;;;;;;16.43;74.68;100913.73;1632786;87;28278;-76
2022/07/25 03:47:56;;;;;;;5.50;2.80;;;;;;;16.44;74.62;100920.80;1641560;87;25926;-75
2022/07/25 03:50:22;;;;;;;2.85;2.45;;;;;;;16.47;74.66;100913.59;1641218;87;25875;-76
2022/07/25 03:52:49;;;;;;;4.55;2.62;;;;;;;16.48;74.27;100916.62;1641836;85;25921;-76
2022/07/25 03:55:15;;;;;;;2.98;2.35;;;;;;;16.47;74.34;100919.00;1636764;85;25916;-76
2022/07/25 03:57:42;;;;;;;2.60;2.12;;;;;;;16.49;74.17;100925.02;1639295;85;28291;-76
2022/07/25 04:00:11;;;;;;;3.37;2.37;;;;;;;16.46;73.94;100928.69;1643991;85;25866;-75
2022/07/25 04:02:38;;;;;;;6.22;2.62;;;;;;;16.44;74.05;100929.44;1642493;86;26379;-76
2022/07/25 04:05:07;;;;;;;7.00;2.65;;;;;;;16.42;74.13;100935.07;1642453;87;26210;-76
2022/07/25 04:07:35;;;;;;;3.58;2.52;;;;;;;16.42;74.26;100934.23;1640405;86;26624;-76
2022/07/25 04:10:04;;;;;;;4.08;2.77;;;;;;;16.45;74.61;100934.62;1647163;85;27639;-77
2022/07/25 04:12:31;;;;;;;4.55;2.95;;;;;;;16.47;74.59;100939.28;1646267;86;26566;-75
2022/07/25 04:14:57;;;;;;;4.30;3.12;;;;;;;16.45;74.72;100942.73;1646893;86;25850;-76
2022/07/25 04:17:24;;;;;;;4.03;3.42;;;;;;;16.46;74.97;100940.86;1643330;87;25762;-75
2022/07/25 04:19:50;;;;;;;5.92;3.83;;;;;;;16.48;75.34;100936.06;1642289;86;25942;-76
2022/07/25 04:22:17;;;;;;;5.50;4.78;;;;;;;16.52;75.79;100936.80;1640484;86;27485;-76
2022/07/25 04:24:43;;;;;;;7.33;5.70;;;;;;;16.61;76.09;100936.86;1639154;86;25864;-75
2022/07/25 04:27:09;;;;;;;6.80;5.92;;;;;;;16.72;76.04;100929.38;1642425;86;25747;-75
2022/07/25 04:29:36;;;;;;;7.45;4.60;;;;;;;16.82;76.54;100935.66;1641503;86;25783;-75
2022/07/25 04:32:03;;;;;;;4.97;4.58;;;;;;;16.86;76.63;100932.82;1643065;86;25905;-76
2022/07/25 04:34:29;;;;;;;7.83;4.10;;;;;;;16.93;77.08;100937.67;1641350;86;27445;-76
2022/07/25 04:36:55;;;;;;;5.15;3.67;;;;;;;17.05;77.28;100940.47;1639648;86;25895;-75
2022/07/25 04:39:21;;;;;;;4.47;3.27;;;;;;;17.17;77.46;100940.08;1618094;86;25935;-76
2022/07/25 04:41:47;;;;;;;4.00;3.27;;;;;;;;;;1642369;85;25913;-76
2022/07/25 04:44:14;;;;;;;5.87;3.17;;;;;;;17.37;77.65;100936.66;1638053;87;25893;-76
2022/07/25 04:46:40;;;;;;;3.67;3.25;;;;;;;17.43;77.88;100937.11;1641640;87;27438;-76
2022/07/25 04:49:06;;;;;;;3.70;3.20;;;;;;;17.54;77.83;100925.58;1642743;87;26129;-76
2022/07/25 04:51:33;;;;;;;6.40;3.70;;;;;;;17.67;77.89;100930.86;1645816;86;25901;-77
2022/07/25 04:53:59;;;;;;;5.25;4.65;;;;;;;17.75;77.98;100929.20;1641375;87;25521;-75
2022/07/25 04:56:25;;;;;;;6.58;5.75;;;;;;;17.86;78.19;100932.52;1643109;86;25905;-76
2022/07/25 04:58:51;;;;;;;6.12;4.62;;;;;;;17.91;78.41;100929.14;1647467;86;27409;-76
2022/07/25 05:01:18;;;;;;;5.58;5.08;;;;;;;17.85;78.21;100928.17;1634672;87;26569;-77
2022/07/25 05:03:44;;;;;;;5.50;4.62;;;;;;;17.89;78.46;100922.59;1605515;88;25875;-77
2022/07/25 05:06:10;;;;;;;7.50;5.10;;;;;;;17.96;78.72;100913.03;1633048;85;25974;-76
2022/07/25 05:08:37;;;;;;;6.30;5.17;;;;;;;18.06;78.71;100910.08;1642510;87;26320;-76
2022/07/25 05:11:03;;;;;;;6.78;6.08;;;;;;;18.12;79.05;100916.46;1642644;87;28358;-76
2022/07/25 05:13:31;;;;;;;7.30;5.97;;;;;;;18.16;79.10;100910.88;1631456;87;25914;-76
2022/07/25 05:15:57;;;;;;;6.75;6.05;;;;;;;18.20;79.22;100908.01;1637335;87;26440;-76
2022/07/25 05:18:24;;;;;;;9.83;6.47;;;;;;;18.24;79.21;100906.52;1642473;85;26035;-75
2022/07/25 05:20:50;;;;;;;7.42;6.47;;;;;;;18.30;79.38;100902.89;1641877;85;25889;-76
2022/07/25 05:23:17;;;;;;;5.55;5.05;;;;;;;18.38;79.59;100900.67;1646674;85;27457;-75
2022/07/25 05:25:43;;;;;;;8.15;6.03;;;;;;;18.52;79.48;100895.09;1645208;85;25881;-76
2022/07/25 05:28:10;;;;;;;8.95;6.08;;;;;;;18.67;79.56;100894.14;1633428;86;25866;-75
2022/07/25 05:30:36;;;;;;;6.40;5.80;;;;;;;18.79;79.52;100891.74;1631765;87;25875;-76
2022/07/25 05:33:02;;;;;;;7.80;6.58;;;;;;;18.93;79.11;100898.60;1643452;85;25961;-77
2022/07/25 05:35:29;;;;;;;9.20;7.72;;;;;;;19.06;79.12;100891.59;1641410;85;27468;-76
2022/07/25 05:37:55;;;;;;;8.38;7.62;;;;;;;19.15;78.74;100892.07;1643253;85;26619;-76
2022/07/25 05:40:22;;;;;;;7.95;7.25;;;;;;;19.25;78.66;100895.02;1641868;85;25821;-76
2022/07/25 05:42:48;;;;;;;8.05;6.85;;;;;;;19.28;78.37;100891.84;1639865;85;26516;-76
2022/07/25 05:45:14;;;;;;;7.78;6.95;;;;;;;19.33;78.66;100889.78;1646917;86;25810;-76
2022/07/25 05:47:41;;;;;;;8.75;7.85;;;;;;;19.45;78.88;100895.53;1646173;85;27624;-76
2022/07/25 05:50:08;;;;;;;9.65;6.92;;;;;;;19.56;79.14;100889.27;1647047;85;26300;-76
2022/07/25 05:52:35;;;;;;;9.18;6.30;;;;;;;19.65;78.71;100884.28;1639478;85;25950;-76
2022/07/25 05:55:01;;;;;;;8.23;6.58;;;;;;;19.77;79.17;100885.08;1648054;85;25915;-76
2022/07/25 05:57:27;;;;;;;7.78;6.42;;;;;;;19.89;78.37;100886.70;1647713;86;25869;-76
2022/07/25 05:59:54;;;;;;;7.30;6.33;;;;;;;19.96;78.31;100872.44;1634843;87;28759;-76
2022/07/25 06:02:20;;;;;;;8.78;6.42;;;;;;;20.06;78.27;100871.00;1639866;87;25972;-75
2022/07/25 06:04:46;;;;;;;8.85;6.50;;;;;;;20.12;77.84;100870.02;1644706;85;25975;-76
2022/07/25 06:07:13;;;;;;;6.78;6.12;;;;;;;20.21;77.93;100869.41;1648585;85;26608;-77
2022/07/25 06:09:39;;;;;;;7.95;5.95;;;;;;;20.32;77.66;100867.70;1642785;85;25896;-76
2022/07/25 06:12:06;;;;;;;5.28;4.78;;;;;;;20.45;77.63;100860.60;1646104;85;28252;-77
2022/07/25 06:14:32;;;;;;;7.87;5.80;;;;;;;20.58;77.17;100861.13;1642736;85;26406;-76
2022/07/25 06:16:58;;;;;;;6.75;5.25;;;;;;;20.68;76.81;100860.45;1641915;85;25907;-77
2022/07/25 06:19:25;;;;;;;5.40;4.90;;;;;;;20.78;76.78;100862.54;1643788;85;25786;-76
2022/07/25 06:21:51;;;;;;;7.58;5.05;;;;;;;20.89;76.53;100857.55;1641608;85;25932;-76
2022/07/25 06:24:17;;;;;;;5.17;4.67;;;;;;;20.99;76.84;100854.45;1645354;86;28492;-76
2022/07/25 06:26:44;;;;;;;6.83;6.20;;;;;;;21.06;76.05;100852.42;1635037;85;25821;-76
2022/07/25 06:29:11;;;;;;;6.85;5.22;;;;;;;21.15;75.79;100849.55;1637522;87;25862;-76
2022/07/25 06:31:37;;;;;;;6.75;5.45;;;;;;;21.22;75.57;100846.64;1633141;87;25982;-77
2022/07/25 06:34:03;;;;;;;6.35;4.25;;;;;;;21.30;75.00;100851.66;1645815;86;25799;-77
2022/07/25 06:36:29;;;;;;;5.47;4.42;;;;;;;21.39;74.78;100849.63;1641987;85;27436;-77
2022/07/25 06:38:56;;;;;;;6.62;4.15;;;;;;;21.51;74.47;100853.06;1642025;85;26293;-76
2022/07/25 06:41:22;;;;;;;5.85;4.33;;;;;;;21.59;74.11;100857.80;1646027;86;26570;-76
2022/07/25 06:43:48;;;;;;;6.35;4.45;;;;;;;21.62;73.50;100855.94;1645367;86;25777;-75
2022/07/25 06:46:14;;;;;;;7.70;4.05;;;;;;;21.66;73.42;100856.55;1632594;86;26012;-76
2022/07/25 06:48:41;;;;;;;6.97;4.00;;;;;;;21.71;72.87;100842.95;1637300;87;27442;-78
2022/07/25 06:51:07;;;;;;;7.17;3.95;;;;;;;21.78;72.69;100835.95;1638389;85;26556;-77
2022/07/25 06:53:34;;;;;;;5.00;3.50;;;;;;;21.85;72.34;100830.64;1647194;85;25779;-77
2022/07/25 06:56:00;;;;;;;4.00;3.33;;;;;;;21.91;71.74;100832.34;1652691;85;26428;-76
2022/07/25 06:58:27;;;;;;;3.62;3.33;;;;;;;21.96;71.67;100833.73;1641525;87;26545;-76
2022/07/25 07:00:54;;;;;;;4.53;3.60;;;;;;;22.02;72.00;100838.73;1646553;85;27455;-76
2022/07/25 07:03:20;;;;;;;5.97;3.50;;;;;;;22.06;71.39;100841.23;1643657;85;26589;-76
2022/07/25 07:05:46;;;;;;;3.60;3.30;;;;;;;22.08;70.70;100843.98;1645484;85;25943;-76
2022/07/25 07:08:12;;;;;;;4.28;3.87;;;;;;;22.11;70.69;100844.82;1645446;85;25916;-77
2022/07/25 07:10:39;;;;;;;7.67;3.75;;;;;;;22.13;70.21;100839.13;1641779;85;25811;-76
2022/07/25 07:13:12;;;;;;;4.35;3.40;;;;;;;22.16;70.40;100839.43;1641768;85;28786;-76
2022/07/25 07:15:48;;;;;;;5.00;3.50;;;;;;;22.22;70.66;100833.47;1637417;85;25913;-76
2022/07/25 07:18:16;;;;;;;4.42;3.17;;;;;;;22.31;70.16;100819.66;1638553;87;25769;-77
2022/07/25 07:20:43;;;;;;;3.35;3.00;;;;;;;22.41;70.35;100817.02;1634829;85;25764;-76
2022/07/25 07:23:10;;;;;;;3.33;3.08;;;;;;;22.47;69.06;100821.99;1640259;87;26283;-75
2022/07/25 07:25:38;;;;;;;3.47;3.15;;;;;;;22.48;69.77;100819.53;1642623;87;27510;-76
2022/07/25 07:28:06;;;;;;;4.08;3.27;;;;;;;22.57;69.79;100816.61;1632726;87;25949;-77
2022/07/25 07:30:33;;;;;;;3.42;3.12;;;;;;;22.62;68.06;100818.89;1646292;86;26615;-77
2022/07/25 07:32:59;;;;;;;3.05;2.80;;;;;;;22.66;68.27;100815.92;1646327;85;25825;-76
2022/07/25 07:35:26;;;;;;;5.03;3.52;;;;;;;22.78;67.87;100813.82;1640845;87;25790;-77
2022/07/25 07:37:53;;;;;;;4.72;3.60;;;;;;;22.85;67.68;100807.60;1636787;85;27445;-77
2022/07/25 07:40:20;;;;;;;3.85;3.47;;;;;;;22.93;68.35;100804.91;1644944;85;25904;-76
2022/07/25 07:42:49;;;;;;;3.70;2.77;;;;;;;22.97;67.24;100801.39;1647196;85;25812;-77
2022/07/25 07:45:24;;;;;;;5.10;2.90;;;;;;;23.01;66.82;100796.21;1641727;87;25739;-77
2022/07/25 07:47:53;;;;;;;5.53;3.60;;;;;;;23.01;66.33;100790.75;1640592;86;25872;-76
2022/07/25 07:50:22;;;;;;;3.47;3.15;;;;;;;23.08;66.49;100793.25;1646307;86;28259;-77
2022/07/25 07:52:52;;;;;;;5.80;3.50;;;;;;;23.17;66.19;100795.77;1641642;87;25778;-77
2022/07/25 07:58:04;;;;;;;4.47;2.98;;;;;;;23.25;64.91;100793.36;1637124;86;25813;-77
2022/07/25 08:00:31;;;;;;;3.50;2.58;;;;;;;23.26;64.75;100801.02;1636018;87;25803;-77
2022/07/25 08:02:59;;;;;;;2.40;2.20;;;;;;;23.28;64.67;100801.58;1643609;87;27464;-78
2022/07/25 08:05:30;;;;;;;3.25;2.95;;;;;;;23.34;64.14;100801.38;1642000;87;26052;-77
2022/07/25 08:07:58;;;;;;;3.25;2.70;;;;;;;23.34;63.04;100795.91;1630550;87;26007;-77
2022/07/25 08:10:28;;;;;;;4.50;2.85;;;;;;;23.34;62.89;100798.64;1638433;85;26254;-76
2022/07/25 08:12:56;;;;;;;3.58;2.55;;;;;;;23.35;63.28;100794.80;1644357;85;25802;-77
2022/07/25 08:15:23;;;;;;;4.90;2.65;;;;;;;23.40;62.97;100797.57;1643316;85;27475;-76
2022/07/25 08:17:50;;;;;;;2.55;2.35;;;;;;;23.47;62.02;100798.70;1647215;85;26147;-76
2022/07/25 08:20:18;;;;;;;2.20;2.00;;;;;;;23.53;62.94;100798.45;1642573;87;25997;-78
2022/07/25 08:22:47;;;;;;;1.98;1.87;;;;;;;23.61;62.65;100792.46;1641691;87;25774;-76
2022/07/25 08:25:18;;;;;;;3.70;2.50;;;;;;;23.67;61.47;100790.02;1647314;86;25869;-76
2022/07/25 08:27:45;;;;;;;2.85;2.35;;;;;;;23.72;61.55;100784.58;1646901;86;27399;-76
2022/07/25 08:30:14;;;;;;;2.40;2.20;;;;;;;23.79;61.92;100784.33;1646919;86;26325;-77
2022/07/25 08:32:56;;;;;;;2.83;2.15;;;;;;;23.81;60.90;100783.51;1642257;87;25782;-77
2022/07/25 08:35:24;;;;;;;4.15;3.05;;;;;;;23.85;60.28;100781.05;1642854;87;26278;-77
2022/07/25 08:37:52;;;;;;;3.98;2.30;;;;;;;23.90;59.98;100773.69;1642199;87;25858;-78
2022/07/25 08:40:22;;;;;;;4.15;2.52;;;;;;;23.94;60.46;100772.59;1721786;79;27458;-75
2022/07/25 08:42:49;;;;;;;3.83;2.35;;;;;;;23.99;59.63;100772.08;1780179;79;25314;-77
2022/07/25 08:45:18;;;;;;;5.15;2.35;;;;;;;23.99;58.10;100765.23;1791156;79;25721;-76
2022/07/25 08:47:47;;;;;;;3.83;2.42;;;;;;;23.97;58.63;100774.80;1766262;79;25764;-76
2022/07/25 08:50:17;;;;;;;2.65;2.42;;;;;;;23.97;59.17;100772.06;1756522;81;25885;-76
2022/07/25 08:52:47;;;;;;;5.35;2.45;;;;;;;24.06;59.71;100773.22;1746046;81;27478;-77
2022/07/25 08:55:18;;;;;;;4.10;2.75;;;;;;;24.11;59.25;100765.83;1723684;82;25856;-76
2022/07/25 08:57:50;;;;;;;5.75;2.58;;;;;;;24.17;59.52;100761.17;1715123;82;25909;-76
2022/07/25 09:00:24;;;;;;;2.85;2.60;;;;;;;24.21;58.53;100759.52;1713072;82;25882;-77
2022/07/25 09:02:54;;;;;;;3.95;2.40;;;;;;;24.22;58.45;100757.08;1702149;82;25781;-76
2022/07/25 09:05:22;;;;;;;2.67;2.47;;;;;;;24.27;58.96;100756.52;1720410;81;27495;-76
2022/07/25 09:07:51;;;;;;;6.53;2.70;;;;;;;24.33;59.61;100750.52;1712449;82;26454;-76
2022/07/25 09:10:22;;;;;;;2.92;2.62;;;;;;;24.37;58.14;100755.17;1711420;82;26132;-76
2022/07/25 09:13:06;;;;;;;2.83;2.50;;;;;;;24.44;57.59;100754.91;1714948;81;25927;-77
2022/07/25 09:15:37;;;;;;;2.55;2.17;;;;;;;24.46;57.21;100751.34;1723550;78;25997;-76
2022/07/25 09:18:12;;;;;;;2.27;2.08;;;;;;;24.53;57.18;100756.55;1718467;81;27477;-76
2022/07/25 09:20:43;;;;;;;2.20;2.00;;;;;;;24.57;56.46;100759.83;1723852;83;25790;-75
2022/07/25 09:23:14;;;;;;;3.98;2.40;;;;;;;24.61;56.16;100752.70;1724916;83;25739;-75
2022/07/25 09:25:41;;;;;;;3.92;2.08;;;;;;;24.69;56.51;100756.80;1713087;83;25898;-76
2022/07/25 09:28:17;;;;;;;2.22;2.02;;;;;;;24.75;55.61;100753.80;1669827;84;26520;-75
2022/07/25 09:31:00;;;;;;;3.58;1.95;;;;;;;24.79;55.14;100753.52;1698055;84;28372;-75
2022/07/25 09:33:28;;;;;;;2.05;1.72;;;;;;;24.85;54.61;100753.78;1697531;84;25991;-75
2022/07/25 09:39:01;;;;;;;2.55;1.92;;;;;;;24.95;54.61;100747.47;1617730;86;26393;-75
2022/07/25 09:41:40;;;;;;;2.20;2.02;;;;;;;24.98;54.50;100746.35;1614117;87;26508;-75
2022/07/25 09:44:18;;;;;;;2.40;2.20;;;;;;;25.01;54.26;100744.98;1650258;85;28221;-74
2022/07/25 09:46:45;;;;;;;3.72;1.90;;;;;;;25.00;54.96;100744.73;1642431;85;25939;-75
2022/07/25 09:49:15;;;;;;;2.42;2.10;;;;;;;25.00;54.30;100739.24;1675941;84;25874;-75
2022/07/25 09:51:40;;;;;;;4.37;2.17;;;;;;;24.99;55.10;100738.95;1674560;84;25846;-76
2022/07/25 09:54:07;;;;;;;4.22;2.30;;;;;;;25.07;55.82;100731.53;1659940;86;25913;-76
2022/07/25 09:56:34;;;;;;;2.62;2.22;;;;;;;25.17;56.08;100736.42;1674945;84;27469;-76
2022/07/25 09:59:02;;;;;;;3.75;2.20;;;;;;;25.29;55.10;100732.01;1701954;84;25989;-75
2022/07/25 10:01:40;;;;;;;2.72;2.22;;;;;;;25.37;54.06;100731.96;1682060;80;25324;-77
2022/07/25 10:04:15;;;;;;;1.85;1.75;;;;;;;25.42;53.35;100727.87;1702534;80;26536;-76
2022/07/25 10:07:03;;;;;;;4.60;2.20;;;;;;;25.48;53.59;100722.63;1710850;82;25900;-77
2022/07/25 10:09:30;;;;;;;2.70;2.08;;;;;;;25.55;53.67;100723.14;1648014;84;27492;-77
2022/07/25 10:12:09;;;;;;;2.02;1.82;;;;;;;25.62;54.52;100716.23;1648361;84;25974;-76
2022/07/25 10:14:37;;;;;;;2.55;2.17;;;;;;;25.64;52.60;100712.65;1728736;79;25839;-76
2022/07/25 10:20:13;;;;;;;2.20;2.00;;;;;;;25.62;52.74;100711.31;1739738;78;26633;-77
2022/07/25 10:22:43;;;;;;;4.47;2.15;;;;;;;25.70;53.75;100704.68;1741550;82;27538;-78
2022/07/25 10:25:15;;;;;;;2.77;2.05;;;;;;;25.76;52.72;100702.17;1734907;82;25937;-77
2022/07/25 10:27:47;;;;;;;3.27;1.85;;;;;;;25.82;54.10;100695.53;1741987;81;26523;-76
2022/07/25 10:30:27;;;;;;;3.17;2.00;;;;;;;25.87;53.09;100692.77;1715048;81;26357;-78
2022/07/25 10:32:59;;;;;;;3.37;2.22;;;;;;;25.92;52.79;100696.00;1711846;83;25821;-76
2022/07/25 10:35:27;;;;;;;3.12;1.90;;;;;;;25.96;53.25;100692.41;1713602;83;28261;-76
2022/07/25 10:38:16;;;;;;;1.90;1.80;;;;;;;26.08;53.39;100696.72;1709168;79;25834;31
2022/07/25 10:40:45;;;;;;;3.15;1.70;;;;;;;26.12;51.79;100696.44;1638168;85;26214;-76
2022/07/25 10:45:58;;;;;;;1.92;1.60;;;;;;;26.10;50.92;100693.16;1707934;82;25849;-77
2022/07/25 10:48:29;;;;;;;6.30;2.10;;;;;;;26.06;51.46;100686.03;1727229;78;27477;-77
2022/07/25 10:51:12;;;;;;;1.87;1.77;;;;;;;26.15;51.88;100686.27;1750013;81;25304;-77
2022/07/25 10:53:46;;;;;;;5.80;1.87;;;;;;;26.23;51.64;100682.89;1765949;81;25799;-77
2022/07/25 10:56:20;;;;;;;1.77;1.65;;;;;;;26.27;52.09;100673.80;1765178;81;25822;-77
2022/07/25 10:58:58;;;;;;;3.62;1.72;;;;;;;26.36;51.17;100673.99;1746076;79;25643;-77
2022/07/25 11:01:31;;;;;;;3.30;1.90;;;;;;;26.33;49.70;100666.31;1741353;81;28476;-76
2022/07/25 11:04:01;;;;;;;1.72;1.62;;;;;;;26.26;50.37;100665.28;1739793;81;25859;-77
2022/07/25 11:06:41;;;;;;;1.60;1.50;;;;;;;26.25;50.14;100665.58;1747872;81;26014;-76
2022/07/25 11:09:18;;;;;;;2.35;1.60;;;;;;;26.27;50.56;100663.36;1759894;79;26377;-78
2022/07/25 11:11:48;;;;;;;3.42;1.60;;;;;;;26.35;50.42;100662.18;1744464;81;25745;-77
2022/07/25 11:14:20;;;;;;;1.62;1.52;;;;;;;26.42;50.38;100659.92;1745939;81;28287;-76
2022/07/25 11:16:50;;;;;;;2.17;1.50;;;;;;;26.47;49.27;100660.43;1755053;81;25611;-76
2022/07/25 11:25:13;;;;;;;1.70;1.60;;;;;;;26.64;49.95;100644.31;1722166;81;25848;-77
2022/07/25 11:27:39;;;;;;;4.33;1.62;;;;;;;26.71;49.96;100644.21;1728701;81;28203;-76
2022/07/25 11:30:13;;;;;;;2.77;1.80;;;;;;;26.81;50.21;100641.13;1705079;78;26905;-77
2022/07/25 11:32:48;;;;;;;4.00;1.55;;;;;;;26.90;49.88;100636.08;1640688;84;26144;-77
2022/07/25 11:35:16;;;;;;;2.87;1.95;;;;;;;26.94;48.66;100637.13;1640355;85;25765;-76
2022/07/25 11:37:47;;;;;;;3.05;1.70;;;;;;;26.94;49.44;100631.62;1620541;86;26539;-77
2022/07/25 11:40:15;;;;;;;1.60;1.47;;;;;;;26.97;47.96;100632.39;1652702;85;28436;-75
2022/07/25 11:42:51;;;;;;;1.85;1.72;;;;;;;26.90;47.75;100635.25;1674803;85;25922;-76
2022/07/25 11:45:24;;;;;;;2.45;1.70;;;;;;;26.90;48.54;100635.25;1671598;85;25832;-76
2022/07/25 11:48:10;;;;;;;1.80;1.50;;;;;;;26.94;48.64;100629.42;1666231;84;26274;-75